LIRN Airport Information

Runway Information
Runway 06 Length 8622 ft width 148 ft
Elevation 284 ft Threshold 1309 ft Heading 58
Runway 24 Length 8622 ft Width 148 ft
Elevation 223 ft Threshold 624 ft Heading 238
Airport Frequencies
Type APP Name NAPOLI RAD Frequency 124.35 MHZ
Type ATIS Name ATIS Frequency 135.975 MHZ
Type DIR Name NAPOLI DIR Frequency 120.95 MHZ
Type GCCD Name NAPOLI GND Frequency 121.9 MHZ
Type OPS Name USN BASE O Frequency 118.275 MHZ
Type PMSV Name PMSV METRO Frequency 34.1 MHZ
Type POST Name ATOC Frequency 118.275 MHZ
Type TWR Name NAPOLI TWR Frequency 118.5 MHZ
Airport Navaids
Type VOR-DME Name Pomigliano Frequency 117850 KHZ
Type NDB Name Pomigliano Frequency 351 KHZ
Airport Weather Information & NOTAM
ADDS - METARS form results

(0457 UTC 06 December 2022)
Data provider http://aviationweather.gov/metar/data/
 
METAR text: LIRN 060450Z 02003KT CAVOK 10/08 Q1018 NOSIG
Conditions at: LIRN (NAPLES/CAPODICHI, IT) observed 0450 UTC 06 December 2022
Temperature: 10.0°C (50°F)
Dewpoint: 8.0°C (46°F) [RH = 87%]
Pressure (altimeter): 30.06 inches Hg (1018.0 mb)
Winds: from the NNE (20 degrees) at 3 MPH (3 knots; 1.5 m/s)
Visibility: 6 or more miles (10+ km)
Ceiling: ceiling and visibility are OK
Clouds: unknown
Weather: no significant weather observed at this time

METAR text: LIRN 060420Z VRB02KT CAVOK 09/08 Q1018 NOSIG
Conditions at: LIRN (NAPLES/CAPODICHI, IT) observed 0420 UTC 06 December 2022
Temperature: 9.0°C (48°F)
Dewpoint: 8.0°C (46°F) [RH = 93%]
Pressure (altimeter): 30.06 inches Hg (1018.0 mb)
Winds: variable direction winds at 2 MPH (2 knots; 1.0 m/s)
Visibility: 6 or more miles (10+ km)
Ceiling: ceiling and visibility are OK
Clouds: unknown
Weather: no significant weather observed at this time

Forecast for: LIRN (NAPLES/CAPODICHI, IT)
Text: TAF LIRN 052300Z 0600/0624 VRB05KT 9999 SCT025
Forecast period: 0000 UTC 06 December 2022 to 0000 UTC 07 December 2022
Forecast type: FROM: standard forecast or significant change
Winds: variable direction winds at 6 MPH (5 knots; 2.6 m/s)
Visibility: 6 or more miles (10+ km)
Ceiling: at least 12,000 feet AGL
Clouds: scattered clouds at 2500 feet AGL
Weather: no significant weather forecast for this period